KGLD/GLD METAR and TAF weather

Enter ICAO airport designator
Station Type Date Time Source
KGLD METAR 2018/12/15 04:53 UTC NOAA

KGLD 150453Z AUTO 20007KT 10SM CLR 02/M09 A3018 RMK AO2 SLP227 T00171089


Station Type Date Time Source
KGLD Decoded METAR 2018/12/15 04:53 UTC NOAA

GOODLAND RENNER FIELD, KS, United States (KGLD) 39-22N 101-42W 1114M
Dec 14, 2018 - 11:53 PM EST / 2018.12.15 0453 UTC
Wind: from the SSW (200 degrees) at 8 MPH (7 KT):0
Visibility: 10 mile(s):0
Sky conditions: clear
Temperature: 35.1 F (1.7 C)
Dew Point: 16.0 F (-8.9 C)
Relative Humidity: 45%
Pressure (altimeter): 30.18 in. Hg (1022 hPa)
ob: KGLD 150453Z AUTO 20007KT 10SM CLR 02/M09 A3018 RMK AO2 SLP227 T00171089
cycle: 5

Station Type Date Time Source
KGLD TAF 2018/12/15 06:24 UTC NOAA

TAF KGLD 150521Z 1506/1606 21008KT P6SM FEW250
FM151900 25007KT P6SM SCT250
FM152300 VRB04KT P6SM BKN200
FM160300 28006KT P6SM SCT250


Example: see airport list